Bracebridge, Canada
Current Conditions -  °F | °C
As of 1:00 AM on Sunday 23 Nov 2014 (Local Time) from CYQA Reporting Station
Light Rain Light Rain  
Wind Chill: 30°   Ceiling: 400
Heat Index: 36°   Visibility: 0.75mi
Dew Point: 36°   Wind: 7mph
Humidity: 100%   Direction: 190°S
Pressure: 29.87"   Gusts: NA
Location:  45.05°N, 79.32°W
Report Text: CYQA 230600Z AUTO 19006KT 3/4SM -RA BR OVC004 02/02 A2987 RMK SLP127
Loading
Personal Weather Stations






























Interactive Weather Map New forecast layout! Learn more

10-Day Weather Forecast

Advertisements
Track Severe Weather on mobile